Time;durP1;ratioP1;P1;durP2;ratioP2;P2;SDS_P1;SDS_P2;PMS_P1;PMS_P2;Temp;Humidity;BMP_temperature;BMP_pressure;BME280_temperature;BME280_humidity;BME280_pressure;Samples;Min_cycle;Max_cycle;Signal;HPM_P1;HPM_P2
2022/08/02 00:01:51;;;;;;;5.30;2.53;;;13.30;99.90;;;;;;4980034;28;20042;-75
2022/08/02 00:04:17;;;;;;;8.05;2.42;;;13.30;99.90;;;;;;4996369;28;20541;-76
2022/08/02 00:06:43;;;;;;;4.88;2.05;;;13.30;99.90;;;;;;4963638;28;20138;-75
2022/08/02 00:09:08;;;;;;;3.78;2.00;;;13.30;99.90;;;;;;4995481;28;20062;-75
2022/08/02 00:11:34;;;;;;;4.90;2.60;;;13.30;99.90;;;;;;4995677;28;20054;-75
2022/08/02 00:14:00;;;;;;;5.72;2.15;;;13.30;99.90;;;;;;4996448;28;20053;-75
2022/08/02 00:16:26;;;;;;;4.28;2.53;;;13.20;99.90;;;;;;4979452;28;20533;-75
2022/08/02 00:18:51;;;;;;;4.43;2.15;;;13.20;99.90;;;;;;4995741;28;20046;-75
2022/08/02 00:21:17;;;;;;;5.10;2.35;;;13.30;99.90;;;;;;4979768;28;20050;-75
2022/08/02 00:23:43;;;;;;;4.93;1.95;;;13.20;99.90;;;;;;4979605;28;20097;-75
2022/08/02 00:26:08;;;;;;;4.38;2.10;;;13.20;99.90;;;;;;4995677;28;20399;-75
2022/08/02 00:28:34;;;;;;;3.75;1.98;;;13.20;99.90;;;;;;4995643;28;20049;-75
2022/08/02 00:31:00;;;;;;;4.20;2.17;;;13.20;99.90;;;;;;4963392;28;20368;-75
2022/08/02 00:33:26;;;;;;;4.68;1.80;;;13.20;99.90;;;;;;4963259;28;20049;-74
2022/08/02 00:35:52;;;;;;;5.45;2.00;;;13.20;99.90;;;;;;4979415;28;20132;-75
2022/08/02 00:38:17;;;;;;;6.22;1.77;;;13.20;99.90;;;;;;4995374;28;20128;-75
2022/08/02 00:40:48;;;;;;;6.15;2.35;;;13.20;99.90;;;;;;4979122;28;20050;-75
2022/08/02 00:43:14;;;;;;;4.68;1.85;;;13.20;99.90;;;;;;4978714;28;20140;-75
2022/08/02 00:45:41;;;;;;;5.65;2.03;;;13.20;99.90;;;;;;4962954;28;20136;-75
2022/08/02 00:48:08;;;;;;;4.72;2.40;;;13.20;99.90;;;;;;4995948;28;20558;-75
2022/08/02 00:50:35;;;;;;;6.32;2.10;;;13.20;99.90;;;;;;4979394;28;20394;-75
2022/08/02 00:53:01;;;;;;;5.05;2.90;;;13.20;99.90;;;;;;4995216;28;20553;-75
2022/08/02 00:55:28;;;;;;;4.72;2.63;;;13.20;99.90;;;;;;4978970;28;20042;-75
2022/08/02 00:57:54;;;;;;;7.45;2.60;;;13.20;99.90;;;;;;4978963;28;20061;-75
2022/08/02 01:00:20;;;;;;;7.05;2.47;;;13.10;99.90;;;;;;4996535;28;20043;-75
2022/08/02 01:02:46;;;;;;;7.50;2.42;;;13.10;99.90;;;;;;4994785;28;20047;-75
2022/08/02 01:05:12;;;;;;;5.65;2.50;;;13.20;99.90;;;;;;4994878;28;20483;-75
2022/08/02 01:07:38;;;;;;;7.30;2.85;;;13.10;99.90;;;;;;4995818;28;20129;-75
2022/08/02 01:10:05;;;;;;;6.63;2.90;;;13.10;99.90;;;;;;4994224;28;20090;-75
2022/08/02 01:12:31;;;;;;;4.45;2.45;;;13.10;99.90;;;;;;4995599;28;20062;-75
2022/08/02 01:15:01;;;;;;;6.63;2.63;;;13.10;99.90;;;;;;4996222;28;20113;-75
2022/08/02 01:17:51;;;;;;;6.32;2.38;;;13.00;99.90;;;;;;4978446;28;20398;-75
2022/08/02 01:20:45;;;;;;;7.63;2.75;;;13.10;99.90;;;;;;4994966;28;20053;-75
2022/08/02 01:23:38;;;;;;;8.55;2.72;;;13.00;99.90;;;;;;4978330;28;20046;-75
2022/08/02 01:26:22;;;;;;;;;;;13.00;99.90;;;;;;4995258;28;20395;-75
2022/08/02 01:28:56;;;;;;;;;;;13.00;99.90;;;;;;4995841;28;20008;-75
2022/08/02 01:31:33;;;;;;;5.43;2.20;;;12.90;99.90;;;;;;4995302;28;19922;-75
2022/08/02 01:34:19;;;;;;;4.32;2.40;;;12.90;99.90;;;;;;4995227;28;20097;-75
2022/08/02 01:37:02;;;;;;;4.30;2.65;;;12.90;99.90;;;;;;4994931;28;20077;-76
2022/08/02 01:39:31;;;;;;;4.75;2.00;;;12.80;99.90;;;;;;4994313;28;20133;-75
2022/08/02 01:41:58;;;;;;;6.72;2.55;;;12.80;99.90;;;;;;4995015;28;20046;-75
2022/08/02 01:44:26;;;;;;;4.15;2.20;;;12.80;99.90;;;;;;4978114;28;20038;-75
2022/08/02 01:46:54;;;;;;;6.20;2.53;;;12.80;99.90;;;;;;4994307;28;20130;-75
2022/08/02 01:49:22;;;;;;;5.80;2.22;;;12.80;99.90;;;;;;4978928;28;20137;-75
2022/08/02 01:54:37;;;;;;;4.22;2.50;;;12.70;99.90;;;;;;4994281;28;20050;-76
2022/08/02 01:57:06;;;;;;;6.03;2.38;;;12.70;99.90;;;;;;4977495;28;20105;-76
2022/08/02 01:59:33;;;;;;;7.07;2.47;;;12.70;99.90;;;;;;4993891;28;20068;-76
2022/08/02 02:02:01;;;;;;;6.22;2.42;;;12.70;99.90;;;;;;4994679;28;20058;-75
2022/08/02 02:04:29;;;;;;;6.18;2.63;;;12.70;99.90;;;;;;4993489;28;20053;-75
2022/08/02 02:06:56;;;;;;;8.68;3.03;;;12.60;99.90;;;;;;4993776;28;20116;-76
2022/08/02 02:09:26;;;;;;;8.38;2.90;;;12.70;99.90;;;;;;4976938;28;20096;-76
2022/08/02 02:11:54;;;;;;;5.82;2.45;;;12.60;99.90;;;;;;4994017;28;20054;-76
2022/08/02 02:14:21;;;;;;;4.82;2.88;;;12.60;99.90;;;;;;4993619;28;20042;-75
2022/08/02 02:16:48;;;;;;;8.55;2.65;;;12.60;99.90;;;;;;4977838;28;20042;-75
2022/08/02 02:19:17;;;;;;;5.50;2.60;;;12.60;99.90;;;;;;4978065;28;20133;-75
2022/08/02 02:21:44;;;;;;;6.72;2.70;;;12.60;99.90;;;;;;4977610;28;20407;-75
2022/08/02 02:24:10;;;;;;;7.72;3.08;;;12.60;99.90;;;;;;4977345;28;20053;-75
2022/08/02 02:26:37;;;;;;;7.95;2.88;;;12.60;99.90;;;;;;4995248;28;20064;-76
2022/08/02 02:29:05;;;;;;;5.25;3.13;;;12.60;99.90;;;;;;4994249;28;20050;-75
2022/08/02 02:31:37;;;;;;;7.50;3.00;;;12.60;99.90;;;;;;4993642;28;20085;-76
2022/08/02 02:34:22;;;;;;;4.57;3.07;;;12.60;99.90;;;;;;4993716;28;20056;-75
2022/08/02 02:36:50;;;;;;;7.30;2.97;;;12.60;99.90;;;;;;4977190;28;20046;-75
2022/08/02 02:39:21;;;;;;;5.63;3.00;;;12.60;99.90;;;;;;4961806;28;20453;-76
2022/08/02 02:41:48;;;;;;;6.90;3.17;;;12.60;99.90;;;;;;4993912;28;20464;-76
2022/08/02 02:44:18;;;;;;;6.60;2.95;;;12.60;99.90;;;;;;4994058;28;20096;-75
2022/08/02 02:46:45;;;;;;;5.70;2.80;;;12.60;99.90;;;;;;4994432;28;20046;-75
2022/08/02 02:49:11;;;;;;;6.00;2.80;;;12.60;99.90;;;;;;4994004;28;20042;-75
2022/08/02 02:51:42;;;;;;;7.75;3.40;;;12.60;99.90;;;;;;4977038;28;20065;-75
2022/08/02 02:54:10;;;;;;;5.97;2.75;;;12.60;99.90;;;;;;4994753;28;20046;-75
2022/08/02 02:56:41;;;;;;;6.10;2.90;;;12.60;99.90;;;;;;4977055;28;20053;-75
2022/08/02 02:59:08;;;;;;;6.10;2.90;;;12.60;99.90;;;;;;4977241;28;20057;-75
2022/08/02 03:01:35;;;;;;;4.75;2.72;;;12.60;99.90;;;;;;4976746;28;20046;-75
2022/08/02 03:04:06;;;;;;;5.00;3.10;;;12.60;99.90;;;;;;4993103;28;20074;-75
2022/08/02 03:06:34;;;;;;;7.38;3.35;;;12.60;99.90;;;;;;4995371;28;20057;-75
2022/08/02 03:09:00;;;;;;;5.30;2.92;;;12.60;99.90;;;;;;4996659;28;20058;-76
2022/08/02 03:11:31;;;;;;;8.43;3.28;;;12.60;99.90;;;;;;4997227;28;20399;-76
2022/08/02 03:14:02;;;;;;;6.80;3.33;;;12.60;99.90;;;;;;4997015;28;20486;-75
2022/08/02 03:16:27;;;;;;;7.10;3.25;;;12.60;99.90;;;;;;4981213;28;20069;-76
2022/08/02 03:18:55;;;;;;;4.90;3.05;;;12.60;99.90;;;;;;4980838;28;20470;-75
2022/08/02 03:21:22;;;;;;;7.45;3.15;;;12.60;99.90;;;;;;4997890;28;20043;-75
2022/08/02 03:23:48;;;;;;;8.85;3.80;;;12.50;99.90;;;;;;4996941;28;20046;-75
2022/08/02 03:26:14;;;;;;;7.05;3.35;;;12.50;99.90;;;;;;4996919;28;20108;-75
2022/08/02 03:28:40;;;;;;;6.28;3.70;;;12.50;99.90;;;;;;4997356;28;20130;-75
2022/08/02 03:31:07;;;;;;;7.45;3.50;;;12.50;99.90;;;;;;4980583;28;20050;-74
2022/08/02 03:33:34;;;;;;;5.70;3.13;;;12.50;99.90;;;;;;4996838;28;20053;-75
2022/08/02 03:36:09;;;;;;;9.13;3.75;;;12.50;99.90;;;;;;4996390;28;20049;-76
2022/08/02 03:38:36;;;;;;;5.03;3.20;;;12.50;99.90;;;;;;4997500;28;20105;-75
2022/08/02 03:41:03;;;;;;;6.43;3.13;;;12.50;99.90;;;;;;4981075;28;20053;-75
2022/08/02 03:43:30;;;;;;;4.90;2.85;;;12.50;99.90;;;;;;4996407;28;20054;-75
2022/08/02 03:45:57;;;;;;;5.45;3.13;;;12.50;99.90;;;;;;4980196;28;20057;-75
2022/08/02 03:48:25;;;;;;;8.13;3.05;;;12.50;99.90;;;;;;4998035;28;20046;-75
2022/08/02 03:50:51;;;;;;;6.90;3.63;;;12.50;99.90;;;;;;4996330;28;20434;-75
2022/08/02 03:53:18;;;;;;;9.73;3.72;;;12.50;99.90;;;;;;4980814;28;20085;-75
2022/08/02 03:55:44;;;;;;;7.75;3.10;;;12.50;99.90;;;;;;4996130;28;20046;-75
2022/08/02 03:58:17;;;;;;;6.93;3.40;;;12.40;99.90;;;;;;4996105;28;20050;-76
2022/08/02 04:00:43;;;;;;;8.05;3.05;;;12.40;99.90;;;;;;4996482;28;20061;-75
2022/08/02 04:03:09;;;;;;;8.75;3.75;;;12.40;99.90;;;;;;4995828;28;20054;-75
2022/08/02 04:05:34;;;;;;;5.43;3.38;;;12.40;99.90;;;;;;4963802;28;20211;-75
2022/08/02 04:08:00;;;;;;;10.10;3.60;;;12.50;99.90;;;;;;4996441;28;20043;-75
2022/08/02 04:10:26;;;;;;;7.47;3.22;;;12.50;99.90;;;;;;4995508;28;20061;-75
2022/08/02 04:12:52;;;;;;;8.40;3.40;;;12.50;99.90;;;;;;4995747;28;20042;-75
2022/08/02 04:15:18;;;;;;;8.27;3.22;;;12.50;99.90;;;;;;4947692;28;20081;-75
2022/08/02 04:17:50;;;;;;;7.10;3.30;;;12.50;99.90;;;;;;4995580;28;20047;-75
2022/08/02 04:20:23;;;;;;;7.47;3.03;;;12.50;99.90;;;;;;4979598;28;20043;-76
2022/08/02 04:23:10;;;;;;;7.78;3.10;;;12.50;99.90;;;;;;4995888;28;20491;-75
2022/08/02 04:25:38;;;;;;;6.53;3.30;;;12.50;99.90;;;;;;4979677;28;20583;-76
2022/08/02 04:28:04;;;;;;;5.13;3.28;;;12.50;99.90;;;;;;4995706;28;20042;-76
2022/08/02 04:30:31;;;;;;;5.13;3.40;;;12.50;99.90;;;;;;4979377;28;20414;-76
2022/08/02 04:32:58;;;;;;;7.18;3.25;;;12.60;99.90;;;;;;4995775;28;20052;-75
2022/08/02 04:35:23;;;;;;;8.25;3.63;;;12.60;99.90;;;;;;4963535;28;20386;-75
2022/08/02 04:37:50;;;;;;;7.00;2.90;;;12.60;99.90;;;;;;4979210;28;20049;-76
2022/08/02 04:40:15;;;;;;;6.00;3.42;;;12.60;99.90;;;;;;4995920;28;20081;-74
2022/08/02 04:42:41;;;;;;;8.43;3.35;;;12.60;99.90;;;;;;4978962;28;20039;-76
2022/08/02 04:45:09;;;;;;;5.03;3.15;;;12.60;99.90;;;;;;4979085;28;20085;-76
2022/08/02 04:47:35;;;;;;;4.90;3.38;;;12.60;99.90;;;;;;4979292;28;20116;-76
2022/08/02 04:50:01;;;;;;;6.97;3.25;;;12.60;99.90;;;;;;4995236;28;20498;-76
2022/08/02 04:52:26;;;;;;;5.38;3.20;;;12.70;99.90;;;;;;4979057;28;20213;-76
2022/08/02 04:54:52;;;;;;;6.85;3.00;;;12.70;99.90;;;;;;4995331;28;20046;-76
2022/08/02 05:00:07;;;;;;;8.80;3.60;;;12.70;99.90;;;;;;4995899;28;20137;-76
2022/08/02 05:02:34;;;;;;;6.82;3.35;;;12.70;99.90;;;;;;4979117;28;20057;-75
2022/08/02 05:05:00;;;;;;;10.77;3.90;;;12.80;99.90;;;;;;4995217;28;20045;-76
2022/08/02 05:07:26;;;;;;;8.02;3.22;;;12.80;99.90;;;;;;4995935;28;20050;-76
2022/08/02 05:09:51;;;;;;;8.52;3.55;;;12.90;99.90;;;;;;4978533;28;20398;-76
2022/08/02 05:12:20;;;;;;;9.80;3.45;;;12.90;99.90;;;;;;4995730;28;20082;-76
2022/08/02 05:14:47;;;;;;;6.63;3.30;;;12.90;99.90;;;;;;4963143;28;20054;-76
2022/08/02 05:17:12;;;;;;;5.68;3.63;;;13.00;99.90;;;;;;4978135;28;20046;-76
2022/08/02 05:19:38;;;;;;;7.57;3.42;;;13.00;99.90;;;;;;4962486;28;20064;-76
2022/08/02 05:22:04;;;;;;;6.60;3.33;;;13.00;99.90;;;;;;4962327;28;20104;-76
2022/08/02 05:24:29;;;;;;;5.40;3.10;;;13.10;99.90;;;;;;4962351;28;20042;-76
2022/08/02 05:26:55;;;;;;;8.60;3.40;;;13.10;99.90;;;;;;4979188;28;20064;-76
2022/08/02 05:29:21;;;;;;;6.70;3.95;;;13.20;99.90;;;;;;4978344;28;20466;-76
2022/08/02 05:31:48;;;;;;;7.90;3.83;;;13.20;99.90;;;;;;4994463;28;20050;-76
2022/08/02 05:34:13;;;;;;;6.57;3.17;;;13.30;99.90;;;;;;4994226;28;20054;-76
2022/08/02 05:36:39;;;;;;;7.57;3.30;;;13.30;99.90;;;;;;4977972;28;20049;-76
2022/08/02 05:39:05;;;;;;;6.13;3.50;;;13.40;99.90;;;;;;4978212;28;20050;-74
2022/08/02 05:41:31;;;;;;;8.63;3.65;;;13.50;99.90;;;;;;4962180;28;20066;-76
2022/08/02 05:43:56;;;;;;;10.13;3.42;;;13.50;99.90;;;;;;4978021;28;20442;-76
2022/08/02 05:46:23;;;;;;;9.35;4.00;;;13.50;99.90;;;;;;4977758;28;20125;-77
2022/08/02 05:48:49;;;;;;;5.65;3.75;;;13.60;99.90;;;;;;4978755;28;20058;-76
2022/08/02 05:52:03;;;;;;;8.40;3.88;;;13.60;99.90;;;;;;4978656;28;20042;-76
2022/08/02 05:54:37;;;;;;;7.47;3.75;;;13.70;99.90;;;;;;4973926;28;20061;-76
2022/08/02 05:57:03;;;;;;;8.55;3.72;;;13.80;99.90;;;;;;4977471;28;20043;-77
2022/08/02 05:59:54;;;;;;;6.50;3.58;;;13.80;99.90;;;;;;4993895;28;20375;-77
2022/08/02 06:02:35;;;;;;;8.27;3.58;;;13.90;99.90;;;;;;4978570;28;20097;-76
2022/08/02 06:05:20;;;;;;;6.00;3.15;;;14.00;99.90;;;;;;4994775;28;20065;-75
2022/08/02 06:07:47;;;;;;;7.80;3.70;;;14.00;99.90;;;;;;4993721;28;20184;-76
2022/08/02 06:10:15;;;;;;;8.57;3.85;;;14.10;99.90;;;;;;4977345;28;20058;-76
2022/08/02 06:12:50;;;;;;;11.40;4.03;;;14.10;99.90;;;;;;4994778;28;20050;-77
2022/08/02 06:15:18;;;;;;;6.65;3.83;;;14.20;99.90;;;;;;4993814;28;20553;-76
2022/08/02 06:17:44;;;;;;;11.32;3.67;;;14.20;99.90;;;;;;4994454;28;20050;-76
2022/08/02 06:20:14;;;;;;;8.80;3.63;;;14.30;99.90;;;;;;4993704;28;20105;-77
2022/08/02 06:22:43;;;;;;;10.40;3.42;;;14.40;99.90;;;;;;4977930;28;20042;-77
2022/08/02 06:25:11;;;;;;;9.25;3.55;;;14.50;99.90;;;;;;4993639;28;20046;-76
2022/08/02 06:27:38;;;;;;;7.40;3.88;;;14.50;99.90;;;;;;4994577;28;20100;-77
2022/08/02 06:30:05;;;;;;;9.52;3.42;;;14.60;99.90;;;;;;4993372;28;20105;-76
2022/08/02 06:32:32;;;;;;;5.75;3.50;;;14.70;99.90;;;;;;4978346;28;20078;-77
2022/08/02 06:34:58;;;;;;;7.47;3.58;;;14.70;99.90;;;;;;4977309;28;20478;-77
2022/08/02 06:37:27;;;;;;;9.25;3.55;;;14.80;99.90;;;;;;4977047;28;20049;-77
2022/08/02 06:40:13;;;;;;;8.80;3.80;;;14.90;99.90;;;;;;4993533;28;20113;-77
2022/08/02 06:42:44;;;;;;;4.82;3.97;;;15.00;99.90;;;;;;4994325;28;20050;-78
2022/08/02 06:45:10;;;;;;;7.95;3.70;;;15.10;99.90;;;;;;4977880;28;20050;-78
2022/08/02 06:47:36;;;;;;;8.27;3.70;;;15.10;99.90;;;;;;4993366;28;20046;-78
2022/08/02 06:50:03;;;;;;;9.77;3.33;;;15.20;99.90;;;;;;4960765;28;20505;-77
2022/08/02 06:52:32;;;;;;;7.22;3.38;;;15.30;99.90;;;;;;4994141;28;20418;-78
2022/08/02 06:55:00;;;;;;;7.00;3.65;;;15.30;99.90;;;;;;4993512;28;20047;-78
2022/08/02 06:57:27;;;;;;;8.05;3.38;;;15.40;99.90;;;;;;4977603;28;20046;-78
2022/08/02 06:59:53;;;;;;;8.13;3.45;;;15.50;99.90;;;;;;4977073;28;20046;-79
2022/08/02 07:02:19;;;;;;;6.30;2.85;;;15.50;99.90;;;;;;4977201;28;20061;-78
2022/08/02 07:04:45;;;;;;;5.60;2.92;;;15.60;99.90;;;;;;4992928;28;20053;-78
2022/08/02 07:07:11;;;;;;;5.85;3.13;;;15.60;99.90;;;;;;4977290;28;20085;-77
2022/08/02 07:09:37;;;;;;;9.05;3.33;;;15.70;99.90;;;;;;4960469;28;20090;-78
2022/08/02 07:12:03;;;;;;;7.03;3.05;;;15.70;99.90;;;;;;4960547;28;20674;-77
2022/08/02 07:14:29;;;;;;;7.50;3.22;;;15.80;99.90;;;;;;4960725;28;20046;-79
2022/08/02 07:16:54;;;;;;;7.50;2.65;;;15.90;99.90;;;;;;4992552;28;20039;-77
2022/08/02 07:19:20;;;;;;;6.80;2.92;;;15.90;99.90;;;;;;4976640;28;20050;-78
2022/08/02 07:21:46;;;;;;;5.40;2.42;;;16.00;99.90;;;;;;4961413;28;20046;-78
2022/08/02 07:24:11;;;;;;;6.65;2.92;;;16.10;99.90;;;;;;4976654;28;20457;-77
2022/08/02 07:26:37;;;;;;;4.40;2.90;;;16.20;99.90;;;;;;4960960;28;20046;-77
2022/08/02 07:29:03;;;;;;;7.10;2.70;;;16.30;99.90;;;;;;4976859;28;20046;-77
2022/08/02 07:31:28;;;;;;;6.15;2.60;;;16.40;99.90;;;;;;4944878;28;20051;-77
2022/08/02 07:33:54;;;;;;;7.80;2.85;;;16.50;99.90;;;;;;4992864;28;20050;-77
2022/08/02 07:36:20;;;;;;;5.80;2.63;;;16.60;99.90;;;;;;4976654;28;20042;-78
2022/08/02 07:38:45;;;;;;;2.80;1.85;;;16.70;99.90;;;;;;4977504;28;20046;-77
2022/08/02 07:41:11;;;;;;;6.90;2.00;;;16.70;99.90;;;;;;4960690;28;20082;-78
2022/08/02 07:43:36;;;;;;;4.53;1.90;;;16.80;99.90;;;;;;4976746;28;20042;-76
2022/08/02 07:46:02;;;;;;;6.15;2.10;;;16.90;99.90;;;;;;4960604;28;20046;-77
2022/08/02 07:48:28;;;;;;;8.43;2.22;;;16.90;99.90;;;;;;4976336;28;20489;-76
2022/08/02 07:50:54;;;;;;;6.47;2.03;;;17.00;99.90;;;;;;4976981;28;20367;-76
2022/08/02 07:53:19;;;;;;;4.80;1.98;;;17.10;99.90;;;;;;4979579;28;20054;-77
2022/08/02 07:55:45;;;;;;;3.67;1.60;;;17.20;99.90;;;;;;4980326;28;20042;-76
2022/08/02 07:58:11;;;;;;;4.10;1.90;;;17.20;99.90;;;;;;4980743;28;20177;-79
2022/08/02 08:00:37;;;;;;;4.90;1.70;;;17.30;99.90;;;;;;4980496;28;20043;-78
2022/08/02 08:03:02;;;;;;;4.90;1.55;;;17.40;99.90;;;;;;4980198;28;20504;-77
2022/08/02 08:05:28;;;;;;;3.20;1.40;;;17.50;99.90;;;;;;4980073;28;20545;-77
2022/08/02 08:07:54;;;;;;;2.28;1.20;;;17.60;99.90;;;;;;4995930;28;20395;-79
2022/08/02 08:10:20;;;;;;;3.13;1.65;;;17.70;99.90;;;;;;4963597;28;20066;-78
2022/08/02 08:12:45;;;;;;;3.72;1.30;;;17.80;99.90;;;;;;4979795;28;20046;-80
2022/08/02 08:15:11;;;;;;;5.15;1.10;;;17.80;99.90;;;;;;4963345;28;20054;-79
2022/08/02 08:17:37;;;;;;;2.13;1.00;;;17.80;99.90;;;;;;4980980;28;20042;-80
2022/08/02 08:20:04;;;;;;;3.60;1.15;;;18.00;99.90;;;;;;4965605;28;20495;-82
2022/08/02 08:22:29;;;;;;;3.13;0.80;;;18.00;99.90;;;;;;4965497;28;20061;-82
2022/08/02 08:24:55;;;;;;;2.35;1.33;;;18.10;99.90;;;;;;4995826;28;20043;-77
2022/08/02 08:27:21;;;;;;;4.30;1.20;;;18.20;99.90;;;;;;4995528;28;20085;-78
2022/08/02 08:29:51;;;;;;;3.08;1.30;;;18.20;99.90;;;;;;4963629;28;20394;-74
2022/08/02 08:32:16;;;;;;;4.85;1.50;;;18.30;99.90;;;;;;4997021;28;20109;-74
2022/08/02 08:34:42;;;;;;;2.05;0.90;;;18.40;99.90;;;;;;4996934;28;20505;-79
2022/08/02 08:37:08;;;;;;;2.88;0.90;;;18.50;99.90;;;;;;4979784;28;20129;-77
2022/08/02 08:39:34;;;;;;;3.42;1.10;;;18.50;99.90;;;;;;4979478;28;20038;-82
2022/08/02 08:42:00;;;;;;;2.08;0.80;;;18.60;99.90;;;;;;4979778;28;20149;-77
2022/08/02 08:44:27;;;;;;;2.25;0.80;;;18.70;99.90;;;;;;4978974;28;20050;-80
2022/08/02 08:46:55;;;;;;;2.97;0.82;;;18.80;99.90;;;;;;4978859;28;20053;-82
2022/08/02 08:49:25;;;;;;;2.45;1.02;;;18.90;99.90;;;;;;4995750;28;20046;-79
2022/08/02 08:51:54;;;;;;;4.95;0.70;;;19.00;99.90;;;;;;4995649;28;20049;-80
2022/08/02 08:54:24;;;;;;;5.82;0.85;;;19.00;99.90;;;;;;4979358;28;20116;-81
2022/08/02 08:56:51;;;;;;;2.20;0.80;;;19.10;99.90;;;;;;4995039;28;20042;-82
2022/08/02 08:59:17;;;;;;;3.08;0.60;;;19.20;99.90;;;;;;4979043;28;20455;-81
2022/08/02 09:01:47;;;;;;;1.92;0.65;;;19.20;99.90;;;;;;4995137;28;20042;-81
2022/08/02 09:04:13;;;;;;;3.53;0.70;;;19.30;99.90;;;;;;4994755;28;20055;-81
2022/08/02 09:06:39;;;;;;;2.08;0.80;;;19.40;99.90;;;;;;4962780;28;20046;-81
2022/08/02 09:09:07;;;;;;;3.80;0.70;;;;;;;;;;4962585;28;20054;-82
2022/08/02 09:11:33;;;;;;;4.32;0.70;;;19.50;99.90;;;;;;4979381;28;20391;-81
2022/08/02 09:14:00;;;;;;;1.42;0.68;;;19.50;99.90;;;;;;4979068;28;20050;-81
2022/08/02 09:16:35;;;;;;;1.52;0.52;;;19.50;99.90;;;;;;4962805;28;20050;-80
2022/08/02 09:19:17;;;;;;;1.88;0.50;;;19.60;99.90;;;;;;4995238;28;20066;-81
2022/08/02 09:21:43;;;;;;;1.23;0.60;;;19.70;99.90;;;;;;4979017;28;20427;-82
2022/08/02 09:24:20;;;;;;;2.45;0.60;;;19.70;99.90;;;;;;4978867;28;20058;-81
2022/08/02 09:26:48;;;;;;;2.08;0.60;;;19.70;99.90;;;;;;4979411;28;20108;-83
2022/08/02 09:29:14;;;;;;;4.40;0.60;;;19.80;99.90;;;;;;4978516;28;20137;-80
2022/08/02 09:31:40;;;;;;;1.33;0.40;;;19.80;99.90;;;;;;4978742;28;20054;-81
2022/08/02 09:34:06;;;;;;;1.48;0.40;;;19.90;99.90;;;;;;5010909;28;20078;-80
2022/08/02 09:36:43;;;;;;;3.85;0.68;;;19.90;99.90;;;;;;4994703;28;20079;-78
2022/08/02 09:39:12;;;;;;;3.20;0.45;;;20.00;99.90;;;;;;4962622;28;20050;-80
2022/08/02 09:41:40;;;;;;;2.40;0.60;;;20.00;99.90;;;;;;4978497;28;20050;-83
2022/08/02 09:44:15;;;;;;;1.52;0.50;;;20.10;99.90;;;;;;4977237;28;20058;-81
2022/08/02 09:46:43;;;;;;;2.47;0.50;;;20.30;99.90;;;;;;4994660;28;20133;-80
2022/08/02 09:49:12;;;;;;;2.90;0.70;;;20.30;99.90;;;;;;4994206;28;20050;-80
2022/08/02 09:51:50;;;;;;;1.73;0.60;;;20.50;99.90;;;;;;4993701;28;20046;-80
2022/08/02 09:54:25;;;;;;;0.75;0.50;;;20.60;99.90;;;;;;4992673;28;20046;-81
2022/08/02 09:56:54;;;;;;;1.33;0.60;;;20.70;99.90;;;;;;4993512;28;20066;-81
2022/08/02 09:59:23;;;;;;;2.40;0.73;;;20.80;99.90;;;;;;4994235;28;20132;-78
2022/08/02 10:01:50;;;;;;;1.63;0.60;;;20.90;99.90;;;;;;4960522;28;20061;-78
2022/08/02 10:04:20;;;;;;;1.30;0.43;;;21.00;99.90;;;;;;4977186;28;20538;-77
2022/08/02 10:06:48;;;;;;;1.60;0.60;;;21.00;99.90;;;;;;4993681;28;20081;-79
2022/08/02 10:09:15;;;;;;;2.75;0.63;;;21.20;99.90;;;;;;4976832;28;20062;-79
2022/08/02 10:11:41;;;;;;;0.60;0.50;;;21.20;99.90;;;;;;4976870;28;20059;-80
2022/08/02 10:14:09;;;;;;;2.00;0.60;;;21.80;99.90;;;;;;4976644;28;20042;-79
2022/08/02 10:16:38;;;;;;;3.58;0.70;;;21.20;99.90;;;;;;4993249;28;20154;-80
2022/08/02 10:19:04;;;;;;;1.88;0.70;;;21.20;99.90;;;;;;4992934;28;20092;-78
2022/08/02 10:21:57;;;;;;;4.07;0.70;;;21.20;99.90;;;;;;4993348;28;20074;-78
2022/08/02 10:24:27;;;;;;;2.47;0.80;;;21.20;99.90;;;;;;4993051;28;20056;-77
2022/08/02 10:26:54;;;;;;;1.05;0.70;;;21.20;99.90;;;;;;4976657;28;20034;-78
2022/08/02 10:29:27;;;;;;;2.95;0.70;;;21.20;99.90;;;;;;4976583;28;20050;-76
2022/08/02 10:31:59;;;;;;;2.50;0.68;;;21.30;99.90;;;;;;4993454;28;20060;-80
2022/08/02 10:34:47;;;;;;;4.93;0.90;;;21.30;99.90;;;;;;4993092;28;20089;-79
2022/08/02 10:37:14;;;;;;;3.72;1.10;;;21.40;99.90;;;;;;4976554;28;20042;-78
2022/08/02 10:39:44;;;;;;;1.90;0.80;;;21.50;99.90;;;;;;4992976;28;20125;-77
2022/08/02 10:42:12;;;;;;;1.70;0.88;;;21.50;99.90;;;;;;4993808;28;20046;-78
2022/08/02 10:44:38;;;;;;;5.15;1.17;;;21.50;99.90;;;;;;4976776;28;20129;-78
2022/08/02 10:47:17;;;;;;;1.38;0.90;;;21.50;99.90;;;;;;4976818;28;20094;-83
2022/08/02 10:49:53;;;;;;;2.20;1.05;;;21.70;99.90;;;;;;4992264;28;20102;-84
2022/08/02 10:52:21;;;;;;;2.97;1.10;;;21.70;99.90;;;;;;4992121;28;20057;-81
2022/08/02 10:54:50;;;;;;;2.35;1.00;;;21.80;99.90;;;;;;4992648;28;20127;-81
2022/08/02 10:57:18;;;;;;;2.90;1.10;;;21.90;99.90;;;;;;4992318;28;20505;-78
2022/08/02 10:59:44;;;;;;;1.77;0.95;;;22.00;99.90;;;;;;4976925;28;20054;-82
2022/08/02 11:02:11;;;;;;;2.33;1.10;;;22.10;99.90;;;;;;4993553;28;20116;-82
2022/08/02 11:04:40;;;;;;;2.22;1.00;;;22.20;99.90;;;;;;4992738;28;20050;-83
2022/08/02 11:07:16;;;;;;;2.40;1.13;;;22.30;99.90;;;;;;4975956;28;20046;-83
2022/08/02 11:09:45;;;;;;;3.15;1.30;;;22.40;99.90;;;;;;4993230;28;20054;-82
2022/08/02 11:12:16;;;;;;;3.45;0.90;;;22.40;99.90;;;;;;4976119;28;20513;-81
2022/08/02 11:14:44;;;;;;;2.22;0.90;;;22.60;99.90;;;;;;4991838;28;20093;-82
2022/08/02 11:17:12;;;;;;;1.70;1.25;;;22.60;99.90;;;;;;4976005;28;20038;-82
2022/08/02 11:20:09;;;;;;;3.80;1.30;;;22.70;99.90;;;;;;4991773;28;20046;-82
2022/08/02 11:22:35;;;;;;;2.78;1.27;;;22.80;99.90;;;;;;4976788;28;20487;-82
2022/08/02 11:25:23;;;;;;;3.33;1.30;;;22.90;99.90;;;;;;4992293;28;20538;-84
2022/08/02 11:27:53;;;;;;;2.38;1.30;;;23.00;99.90;;;;;;4978424;28;20061;-85
2022/08/02 11:30:20;;;;;;;3.20;1.10;;;23.00;99.90;;;;;;4995993;28;20099;-83
2022/08/02 11:32:47;;;;;;;2.25;1.30;;;23.20;99.90;;;;;;4996814;28;20046;-81
2022/08/02 11:35:13;;;;;;;2.58;1.20;;;23.20;99.90;;;;;;4980260;28;20081;-83
2022/08/02 11:37:43;;;;;;;3.38;1.30;;;23.30;99.90;;;;;;4980202;28;20085;-84
2022/08/02 11:40:15;;;;;;;2.90;1.80;;;23.30;99.90;;;;;;4996519;28;20050;-82
2022/08/02 11:42:46;;;;;;;1.98;1.75;;;23.40;99.90;;;;;;4996302;28;20049;-82
2022/08/02 11:45:14;;;;;;;4.05;1.50;;;23.50;99.90;;;;;;4997384;28;20072;-81
2022/08/02 11:47:50;;;;;;;2.85;1.50;;;23.60;99.90;;;;;;4996465;28;20104;-81
2022/08/02 11:50:19;;;;;;;4.32;1.90;;;23.60;99.90;;;;;;4996511;28;20046;-82
2022/08/02 11:52:46;;;;;;;2.65;1.60;;;23.60;99.90;;;;;;4981009;28;20097;-83
2022/08/02 11:55:12;;;;;;;2.88;1.50;;;23.70;99.90;;;;;;4996363;28;20431;-80
2022/08/02 11:57:39;;;;;;;4.13;1.50;;;23.70;99.90;;;;;;4995951;28;20050;-79
2022/08/02 12:00:15;;;;;;;3.25;1.50;;;23.80;99.90;;;;;;4996329;28;20376;-79
2022/08/02 12:02:48;;;;;;;4.45;1.83;;;23.90;99.90;;;;;;4997078;28;20139;-80
2022/08/02 12:05:19;;;;;;;2.80;1.42;;;23.90;99.90;;;;;;4997949;28;20378;-79
2022/08/02 12:07:46;;;;;;;4.82;1.60;;;24.00;99.90;;;;;;4997057;28;20050;-80
2022/08/02 12:10:17;;;;;;;3.20;1.92;;;24.10;99.90;;;;;;4979498;28;20130;-79
2022/08/02 12:12:50;;;;;;;3.33;1.50;;;24.20;99.90;;;;;;4996414;28;20065;-78
2022/08/02 12:15:44;;;;;;;3.70;1.42;;;24.20;99.90;;;;;;4995993;28;20108;-82
2022/08/02 12:20:57;;;;;;;3.10;1.15;;;24.40;99.90;;;;;;4996153;28;20058;-77
2022/08/02 12:23:25;;;;;;;2.25;1.58;;;24.30;99.90;;;;;;4979966;28;20086;-78
2022/08/02 12:26:05;;;;;;;3.05;1.40;;;24.40;99.90;;;;;;4996161;28;20078;-79
2022/08/02 12:28:37;;;;;;;7.88;1.50;;;24.40;99.90;;;;;;4996577;28;20085;-78
2022/08/02 12:31:04;;;;;;;3.63;1.30;;;24.40;99.90;;;;;;4996766;28;20050;-76
2022/08/02 12:33:53;;;;;;;2.97;1.10;;;24.40;99.90;;;;;;4963360;28;20054;-79
2022/08/02 12:36:20;;;;;;;2.30;1.40;;;24.40;99.90;;;;;;4979571;28;20081;-77
2022/08/02 12:38:57;;;;;;;1.77;1.10;;;24.40;99.90;;;;;;4995201;28;20055;-77
2022/08/02 12:41:24;;;;;;;1.90;1.48;;;24.40;99.90;;;;;;4995541;28;20507;-81
2022/08/02 12:43:51;;;;;;;3.08;1.70;;;24.50;99.90;;;;;;4979265;28;20054;-79
2022/08/02 12:46:22;;;;;;;3.03;1.60;;;24.50;99.90;;;;;;4996289;28;20046;-80
2022/08/02 12:48:48;;;;;;;4.00;1.50;;;24.50;99.90;;;;;;4996352;28;20050;-78
2022/08/02 12:51:25;;;;;;;3.75;1.80;;;24.50;99.90;;;;;;4995370;28;20065;-77
2022/08/02 12:53:52;;;;;;;2.33;1.50;;;24.40;99.90;;;;;;4979058;28;20050;-81
2022/08/02 12:56:35;;;;;;;3.35;1.60;;;24.40;99.90;;;;;;4978897;28;20124;-80
2022/08/02 12:59:02;;;;;;;5.38;1.92;;;24.40;99.90;;;;;;4996480;28;20073;-80
2022/08/02 13:01:28;;;;;;;2.90;1.42;;;24.40;99.90;;;;;;4995449;28;20046;-81
2022/08/02 13:03:54;;;;;;;3.58;1.20;;;24.40;99.90;;;;;;4979509;28;20053;-79
2022/08/02 13:06:21;;;;;;;2.70;1.17;;;24.50;99.90;;;;;;4978867;28;20491;-80